Rockdale, Iowa
Current Conditions -  °F | °C
As of 11:53 AM on Saturday 20 Dec 2014 (Local Time) from KDBQ Reporting Station
Haze Haze  
Wind Chill: 21°   Ceiling: 1800
Heat Index: 30°   Visibility: 5mi
Dew Point: 25°   Wind: 12mph
Humidity: 82%   Direction: 160°SSE
Pressure: 30.21"   Gusts: NA
Location:  42.549°N, 90.6988°W
Report Text: KDBQ 201753Z 16010KT 5SM HZ OVC018 M01/M04 A3021 RMK AO2 SLP245 T10111039 11011 21033 58003
Loading
Personal Weather Stations






























Interactive Weather Map New forecast layout! Learn more

10-Day Weather Forecast

Advertisements
Track Severe Weather on mobile